Time;durP1;ratioP1;P1;durP2;ratioP2;P2;SDS_P1;SDS_P2;PMS_P1;PMS_P2;Temp;Humidity;BMP_temperature;BMP_pressure;BME280_temperature;BME280_humidity;BME280_pressure;Samples;Min_cycle;Max_cycle;Signal;HPM_P1;HPM_P2
2024/01/22 00:00:12;;;;;;;8.83;6.00;;;;;;;;;;5090129;28;20484;-77
2024/01/22 00:02:38;;;;;;;15.37;5.77;;;;;;;;;;5087899;28;20860;-77
2024/01/22 00:05:05;;;;;;;8.80;5.30;;;;;;;;;;5086745;28;20492;-80
2024/01/22 00:07:32;;;;;;;7.27;5.20;;;;;;;;;;5088047;28;20852;-79
2024/01/22 00:10:00;;;;;;;10.93;6.43;;;;;;;;;;5088509;28;20462;-79
2024/01/22 00:12:26;;;;;;;10.37;5.70;;;;;;;;;;5087216;28;20470;-79
2024/01/22 00:14:53;;;;;;;12.67;5.00;;;;;;;;;;5083691;28;20852;-79
2024/01/22 00:17:20;;;;;;;6.67;5.17;;;;;;;;;;5085681;28;20477;-79
2024/01/22 00:19:46;;;;;;;5.40;4.03;;;;;;;;;;5090442;28;20492;-79
2024/01/22 00:22:12;;;;;;;8.60;4.80;;;;;;;;;;5087316;28;20548;-79
2024/01/22 00:24:40;;;;;;;9.20;5.47;;;;;;;;;;5089782;28;20509;-79
2024/01/22 00:27:10;;;;;;;4.97;3.83;;;;;;;;;;5088360;28;20472;-79
2024/01/22 00:29:37;;;;;;;7.53;5.47;;;;;;;;;;5089484;28;20439;-79
2024/01/22 00:32:04;;;;;;;6.07;4.80;;;;;;;;;;5085081;28;20508;-79
2024/01/22 00:34:31;;;;;;;6.60;4.60;;;;;;;;;;5083210;28;20484;-80
2024/01/22 00:36:57;;;;;;;7.40;4.87;;;;;;;;;;5089275;28;20466;-78
2024/01/22 00:39:24;;;;;;;5.83;4.00;;;;;;;;;;5089801;28;20481;-80
2024/01/22 00:41:50;;;;;;;5.83;4.10;;;;;;;;;;5087706;28;20470;-77
2024/01/22 00:44:18;;;;;;;5.23;3.90;;;;;;;;;;5088877;28;20434;-80
2024/01/22 00:46:44;;;;;;;7.07;4.50;;;;;;;;;;5088481;28;20556;-80
2024/01/22 00:49:11;;;;;;;6.10;3.93;;;;;;;;;;5087668;28;20464;-79
2024/01/22 00:51:37;;;;;;;5.03;4.60;;;;;;;;;;5087726;28;21002;-78
2024/01/22 00:54:04;;;;;;;4.57;3.90;;;;;;;;;;5088468;28;20450;-77
2024/01/22 00:56:31;;;;;;;6.50;3.70;;;;;;;;;;5087868;28;20472;-77
2024/01/22 00:58:57;;;;;;;5.50;3.70;;;;;;;;;;5089522;28;20485;-77
2024/01/22 01:01:25;;;;;;;7.07;3.90;;;;;;;;;;5087609;28;20457;-80
2024/01/22 01:03:52;;;;;;;5.00;4.23;;;;;;;;;;5089690;28;20441;-80
2024/01/22 01:06:18;;;;;;;9.07;4.33;;;;;;;;;;5085223;28;20577;-80
2024/01/22 01:08:45;;;;;;;5.30;4.07;;;;;;;;;;5089119;28;20822;-79
2024/01/22 01:11:14;;;;;;;5.23;3.47;;;;;;;;;;5086471;28;20472;-79
2024/01/22 01:13:40;;;;;;;5.60;4.13;;;;;;;;;;5087468;28;20862;-79
2024/01/22 01:16:07;;;;;;;4.90;3.83;;;;;;;;;;5086606;28;20475;-79
2024/01/22 01:18:34;;;;;;;7.57;4.07;;;;;;;;;;5088447;28;20462;-79
2024/01/22 01:21:01;;;;;;;4.40;3.70;;;;;;;;;;5087662;28;20475;-79
2024/01/22 01:23:27;;;;;;;6.03;3.83;;;;;;;;;;5086746;28;20534;-79
2024/01/22 01:25:54;;;;;;;5.30;3.57;;;;;;;;;;5086034;28;20481;-79
2024/01/22 01:28:21;;;;;;;6.50;3.20;;;;;;;;;;5086526;28;20452;-79
2024/01/22 01:30:47;;;;;;;4.57;3.17;;;;;;;;;;5079567;28;20447;-79
2024/01/22 01:33:14;;;;;;;4.23;3.57;;;;;;;;;;5085993;28;20477;-79
2024/01/22 01:35:44;;;;;;;7.13;3.97;;;;;;;;;;5087713;28;20466;-79
2024/01/22 01:38:11;;;;;;;4.30;3.90;;;;;;;;;;5088271;28;20529;-79
2024/01/22 01:40:40;;;;;;;4.13;3.73;;;;;;;;;;5085779;28;20483;-79
2024/01/22 01:43:06;;;;;;;5.03;3.83;;;;;;;;;;5088062;28;20944;-79
2024/01/22 01:45:33;;;;;;;11.07;4.57;;;;;;;;;;5087798;28;20465;-80
2024/01/22 01:48:00;;;;;;;4.33;3.83;;;;;;;;;;5087126;28;21063;-80
2024/01/22 01:50:27;;;;;;;6.47;3.20;;;;;;;;;;5086990;28;20430;-80
2024/01/22 01:52:55;;;;;;;5.50;3.43;;;;;;;;;;5088022;28;20842;-80
2024/01/22 01:55:22;;;;;;;4.30;3.90;;;;;;;;;;5086047;28;20469;-80
2024/01/22 01:57:49;;;;;;;4.70;3.97;;;;;;;;;;5085721;28;20474;-80
2024/01/22 02:00:16;;;;;;;4.90;3.13;;;;;;;;;;5086255;28;20484;-80
2024/01/22 02:02:42;;;;;;;4.20;3.30;;;;;;;;;;5088029;28;20462;-79
2024/01/22 02:05:09;;;;;;;5.10;4.13;;;;;;;;;;5086856;28;20460;-80
2024/01/22 02:07:36;;;;;;;3.73;3.30;;;;;;;;;;5086046;28;20997;-80
2024/01/22 02:10:04;;;;;;;6.40;3.97;;;;;;;;;;5086678;28;20796;-79
2024/01/22 02:12:30;;;;;;;3.60;3.30;;;;;;;;;;5084292;28;21016;-80
2024/01/22 02:14:58;;;;;;;6.37;3.50;;;;;;;;;;5087111;28;20985;-80
2024/01/22 02:17:25;;;;;;;6.40;3.70;;;;;;;;;;5086176;28;20477;-79
2024/01/22 02:19:51;;;;;;;3.70;3.40;;;;;;;;;;5085830;28;20539;-79
2024/01/22 02:22:18;;;;;;;4.77;3.30;;;;;;;;;;5086089;28;20840;-79
2024/01/22 02:24:46;;;;;;;5.70;3.30;;;;;;;;;;5085636;28;20468;-79
2024/01/22 02:27:12;;;;;;;9.43;3.67;;;;;;;;;;5084647;28;20478;-79
2024/01/22 02:29:39;;;;;;;6.07;3.13;;;;;;;;;;5085131;28;20947;-79
2024/01/22 02:32:06;;;;;;;5.00;3.03;;;;;;;;;;5084359;28;20505;-79
2024/01/22 02:34:32;;;;;;;10.17;4.40;;;;;;;;;;5082856;28;20948;-79
2024/01/22 02:36:59;;;;;;;4.07;3.00;;;;;;;;;;5085578;28;20900;-79
2024/01/22 02:39:26;;;;;;;4.33;3.57;;;;;;;;;;5084885;28;20482;-79
2024/01/22 02:41:54;;;;;;;5.37;3.37;;;;;;;;;;5084367;28;20461;-79
2024/01/22 02:44:20;;;;;;;2.93;2.67;;;;;;;;;;5083568;28;20842;-80
2024/01/22 02:46:47;;;;;;;5.17;3.60;;;;;;;;;;5086361;28;20837;-78
2024/01/22 02:49:15;;;;;;;3.10;2.80;;;;;;;;;;5085919;28;20449;-79
2024/01/22 02:51:42;;;;;;;7.33;3.40;;;;;;;;;;5085957;28;20511;-79
2024/01/22 02:54:13;;;;;;;3.20;2.90;;;;;;;;;;5085461;28;20452;-80
2024/01/22 02:56:39;;;;;;;3.70;3.17;;;;;;;;;;5084907;28;20970;-80
2024/01/22 02:59:08;;;;;;;4.30;3.57;;;;;;;;;;5083449;28;20461;-80
2024/01/22 03:01:34;;;;;;;3.63;3.27;;;;;;;;;;5084972;28;21064;-78
2024/01/22 03:04:01;;;;;;;3.40;3.10;;;;;;;;;;5078718;28;20442;-80
2024/01/22 03:06:27;;;;;;;6.17;3.90;;;;;;;;;;5085606;28;20467;-80
2024/01/22 03:08:54;;;;;;;6.93;3.03;;;;;;;;;;5085991;28;20881;-78
2024/01/22 03:11:20;;;;;;;6.10;3.40;;;;;;;;;;5085560;28;20478;-80
2024/01/22 03:13:46;;;;;;;6.40;4.20;;;;;;;;;;5085711;28;20901;-80
2024/01/22 03:16:14;;;;;;;3.57;3.27;;;;;;;;;;5084715;28;20473;-79
2024/01/22 03:18:41;;;;;;;5.50;3.80;;;;;;;;;;5085697;28;21050;-78
2024/01/22 03:21:08;;;;;;;7.90;5.00;;;;;;;;;;5085163;28;20466;-80
2024/01/22 03:23:37;;;;;;;9.70;3.80;;;;;;;;;;5087075;28;21006;-78
2024/01/22 03:26:05;;;;;;;6.60;4.33;;;;;;;;;;5084506;28;20473;-77
2024/01/22 03:28:32;;;;;;;4.47;4.00;;;;;;;;;;5085877;28;20442;-77
2024/01/22 03:30:58;;;;;;;4.97;3.80;;;;;;;;;;5084377;28;20480;-78
2024/01/22 03:33:26;;;;;;;4.67;4.20;;;;;;;;;;5085366;28;20445;-80
2024/01/22 03:35:54;;;;;;;7.40;4.53;;;;;;;;;;5085892;28;20466;-78
2024/01/22 03:38:20;;;;;;;5.13;4.40;;;;;;;;;;5086057;28;20453;-77
2024/01/22 03:40:47;;;;;;;8.33;4.20;;;;;;;;;;5084532;28;20485;-78
2024/01/22 03:43:13;;;;;;;5.40;4.67;;;;;;;;;;5085960;28;20510;-77
2024/01/22 03:45:40;;;;;;;6.00;5.33;;;;;;;;;;5085164;28;20474;-80
2024/01/22 03:48:07;;;;;;;6.90;6.20;;;;;;;;;;5085874;28;20438;-79
2024/01/22 03:50:35;;;;;;;5.50;4.50;;;;;;;;;;5084445;28;20466;-80
2024/01/22 03:53:02;;;;;;;12.67;4.80;;;;;;;;;;5086979;28;20807;-79
2024/01/22 03:55:28;;;;;;;4.90;4.27;;;;;;;;;;5085222;28;20457;-80
2024/01/22 03:57:54;;;;;;;4.93;4.40;;;;;;;;;;5086827;28;20462;-79
2024/01/22 04:00:21;;;;;;;5.23;4.80;;;;;;;;;;5088616;28;20495;-79
2024/01/22 04:02:48;;;;;;;5.27;4.73;;;;;;;;;;5089326;28;20465;-79
2024/01/22 04:05:15;;;;;;;5.53;4.60;;;;;;;;;;5085867;28;20937;-79
2024/01/22 04:07:42;;;;;;;6.80;4.63;;;;;;;;;;5066686;28;21035;-79
2024/01/22 04:10:10;;;;;;;5.53;5.13;;;;;;;;;;5089131;28;20430;-80
2024/01/22 04:12:38;;;;;;;5.33;4.93;;;;;;;;;;5087866;28;20469;-77
2024/01/22 04:15:05;;;;;;;8.07;5.10;;;;;;;;;;5089461;28;20455;-79
2024/01/22 04:17:32;;;;;;;10.17;4.47;;;;;;;;;;5089624;28;20477;-79
2024/01/22 04:19:58;;;;;;;15.93;5.73;;;;;;;;;;5089743;28;20565;-79
2024/01/22 04:22:24;;;;;;;5.57;5.00;;;;;;;;;;5087375;28;21032;-80
2024/01/22 04:24:53;;;;;;;4.77;4.37;;;;;;;;;;5089530;28;20465;-80
2024/01/22 04:27:19;;;;;;;8.37;5.13;;;;;;;;;;5086713;28;20462;-79
2024/01/22 04:29:47;;;;;;;5.10;4.27;;;;;;;;;;5088537;28;20441;-80
2024/01/22 04:32:13;;;;;;;9.60;4.10;;;;;;;;;;5088850;28;20558;-80
2024/01/22 04:34:40;;;;;;;7.63;4.63;;;;;;;;;;5087188;28;20496;-80
2024/01/22 04:37:06;;;;;;;5.07;4.00;;;;;;;;;;5088406;28;20497;-79
2024/01/22 04:39:34;;;;;;;7.03;4.70;;;;;;;;;;5090238;28;20554;-79
2024/01/22 04:42:03;;;;;;;4.63;4.23;;;;;;;;;;5088162;28;20479;-79
2024/01/22 04:44:30;;;;;;;3.17;2.93;;;;;;;;;;5087782;28;20470;-79
2024/01/22 04:46:56;;;;;;;4.40;3.70;;;;;;;;;;5088841;28;20465;-79
2024/01/22 04:49:23;;;;;;;4.90;3.50;;;;;;;;;;5099073;28;20540;-78
2024/01/22 04:51:51;;;;;;;4.43;3.67;;;;;;;;;;5099820;28;20518;-78
2024/01/22 04:54:19;;;;;;;3.97;3.67;;;;;;;;;;5102275;28;20434;-79
2024/01/22 04:56:46;;;;;;;6.53;3.60;;;;;;;;;;5096680;28;20489;-78
2024/01/22 04:59:15;;;;;;;4.63;3.70;;;;;;;;;;5101179;28;20457;-78
2024/01/22 05:01:42;;;;;;;7.80;4.10;;;;;;;;;;5083176;28;20504;-78
2024/01/22 05:04:11;;;;;;;7.00;3.70;;;;;;;;;;5097417;28;20477;-78
2024/01/22 05:06:37;;;;;;;3.80;3.33;;;;;;;;;;5099465;28;20475;-78
2024/01/22 05:09:06;;;;;;;4.83;4.23;;;;;;;;;;5098429;28;20446;-78
2024/01/22 05:11:32;;;;;;;3.77;3.47;;;;;;;;;;5095984;28;20462;-77
2024/01/22 05:14:03;;;;;;;4.00;3.70;;;;;;;;;;5100882;28;20494;-77
2024/01/22 05:16:34;;;;;;;3.77;3.47;;;;;;;;;;5095651;28;20470;-77
2024/01/22 05:19:01;;;;;;;3.97;3.57;;;;;;;;;;5080901;28;20432;-76
2024/01/22 05:21:30;;;;;;;4.87;4.00;;;;;;;;;;5081864;28;20546;-77
2024/01/22 05:23:57;;;;;;;5.10;3.00;;;;;;;;;;5084109;28;20442;-77
2024/01/22 05:26:23;;;;;;;3.70;3.20;;;;;;;;;;5078326;28;20516;-76
2024/01/22 05:28:50;;;;;;;4.80;3.90;;;;;;;;;;5082059;28;21041;-76
2024/01/22 05:31:16;;;;;;;3.33;3.07;;;;;;;;;;5081784;28;20492;-76
2024/01/22 05:33:44;;;;;;;3.30;3.10;;;;;;;;;;5081515;28;20486;-78
2024/01/22 05:36:11;;;;;;;3.60;3.30;;;;;;;;;;5079853;28;20550;-76
2024/01/22 05:38:39;;;;;;;3.87;3.57;;;;;;;;;;5083726;28;20518;-78
2024/01/22 05:41:07;;;;;;;3.53;2.87;;;;;;;;;;5083514;28;20486;-76
2024/01/22 05:43:35;;;;;;;3.87;3.57;;;;;;;;;;5082637;28;20522;-78
2024/01/22 05:46:02;;;;;;;3.60;3.30;;;;;;;;;;5082172;28;20510;-78
2024/01/22 05:48:29;;;;;;;3.13;2.93;;;;;;;;;;5083455;28;20546;-78
2024/01/22 05:50:57;;;;;;;4.23;3.33;;;;;;;;;;5081978;28;20482;-78
2024/01/22 05:53:23;;;;;;;3.10;2.80;;;;;;;;;;5083059;28;21018;-78
2024/01/22 05:55:50;;;;;;;3.13;2.33;;;;;;;;;;5072911;28;20552;-77
2024/01/22 05:58:17;;;;;;;3.30;3.00;;;;;;;;;;5084822;28;20876;-77
2024/01/22 06:00:43;;;;;;;3.17;2.97;;;;;;;;;;5076840;28;20478;-77
2024/01/22 06:03:10;;;;;;;3.37;3.07;;;;;;;;;;5077287;28;20467;-77
2024/01/22 06:05:37;;;;;;;2.80;2.60;;;;;;;;;;5075477;28;21068;-77
2024/01/22 06:08:05;;;;;;;2.80;2.60;;;;;;;;;;5075256;28;20475;-78
2024/01/22 06:10:32;;;;;;;3.00;2.80;;;;;;;;;;5076937;28;20470;-77
2024/01/22 06:12:58;;;;;;;2.77;2.57;;;;;;;;;;5073960;28;20506;-77
2024/01/22 06:15:24;;;;;;;5.30;3.07;;;;;;;;;;5075806;28;20461;-78
2024/01/22 06:17:51;;;;;;;3.83;3.53;;;;;;;;;;5075259;28;20783;-77
2024/01/22 06:20:17;;;;;;;3.63;3.33;;;;;;;;;;5075114;28;21023;-77
2024/01/22 06:22:44;;;;;;;3.90;3.60;;;;;;;;;;5072746;28;20469;-77
2024/01/22 06:25:12;;;;;;;4.27;3.10;;;;;;;;;;5071845;28;20482;-77
2024/01/22 06:27:39;;;;;;;4.37;2.83;;;;;;;;;;5068226;28;20463;-77
2024/01/22 06:30:06;;;;;;;3.80;3.50;;;;;;;;;;5071065;28;20465;-77
2024/01/22 06:32:34;;;;;;;3.50;3.30;;;;;;;;;;5070216;28;20571;-77
2024/01/22 06:35:00;;;;;;;3.43;3.17;;;;;;;;;;5071946;28;20471;-77
2024/01/22 06:37:26;;;;;;;3.77;3.43;;;;;;;;;;5070530;28;20552;-77
2024/01/22 06:39:53;;;;;;;3.77;3.53;;;;;;;;;;5070902;28;20534;-78
2024/01/22 06:42:21;;;;;;;3.40;3.20;;;;;;;;;;5071366;28;20470;-79
2024/01/22 06:44:47;;;;;;;3.40;3.10;;;;;;;;;;5071991;28;20510;-76
2024/01/22 06:47:14;;;;;;;5.13;3.57;;;;;;;;;;5070684;28;20558;-79
2024/01/22 06:49:42;;;;;;;3.50;3.20;;;;;;;;;;5071008;28;20467;-79
2024/01/22 06:52:08;;;;;;;3.20;3.00;;;;;;;;;;5070729;28;20473;-76
2024/01/22 06:54:35;;;;;;;3.63;3.33;;;;;;;;;;5070208;28;20534;-77
2024/01/22 06:57:01;;;;;;;3.03;2.83;;;;;;;;;;5070136;28;20576;-79
2024/01/22 06:59:30;;;;;;;2.57;2.40;;;;;;;;;;5071233;28;20546;-78
2024/01/22 07:01:58;;;;;;;5.53;2.97;;;;;;;;;;5071407;28;20467;-79
2024/01/22 07:04:25;;;;;;;3.70;2.80;;;;;;;;;;5070583;28;20977;-79
2024/01/22 07:06:52;;;;;;;3.30;3.07;;;;;;;;;;5071927;28;20467;-78
2024/01/22 07:09:19;;;;;;;5.40;3.37;;;;;;;;;;5071436;28;20443;-78
2024/01/22 07:11:46;;;;;;;3.53;3.27;;;;;;;;;;5072022;28;20459;-78
2024/01/22 07:14:13;;;;;;;2.73;2.53;;;;;;;;;;5069680;28;20465;-79
2024/01/22 07:16:41;;;;;;;2.63;2.43;;;;;;;;;;5068557;28;20469;-78
2024/01/22 07:19:08;;;;;;;2.70;2.50;;;;;;;;;;5070989;28;20934;-78
2024/01/22 07:21:34;;;;;;;2.53;2.33;;;;;;;;;;5071462;28;20471;-79
2024/01/22 07:24:02;;;;;;;2.70;2.50;;;;;;;;;;5071298;28;20441;-78
2024/01/22 07:26:29;;;;;;;4.47;2.80;;;;;;;;;;5070224;28;20900;-78
2024/01/22 07:28:55;;;;;;;3.03;2.60;;;;;;;;;;5071005;28;20530;-80
2024/01/22 07:31:24;;;;;;;2.47;2.20;;;;;;;;;;5071267;28;20477;-79
2024/01/22 07:33:51;;;;;;;3.37;2.20;;;;;;;;;;5075201;28;20449;-76
2024/01/22 07:36:18;;;;;;;2.20;2.10;;;;;;;;;;5074944;28;20479;-77
2024/01/22 07:38:45;;;;;;;3.23;2.57;;;;;;;;;;5072327;28;20446;-76
2024/01/22 07:41:12;;;;;;;2.83;2.63;;;;;;;;;;5074333;28;20554;-77
2024/01/22 07:43:39;;;;;;;2.40;2.20;;;;;;;;;;5074896;28;20459;-78
2024/01/22 07:46:05;;;;;;;2.90;2.70;;;;;;;;;;5075598;28;20550;-77
2024/01/22 07:48:33;;;;;;;2.43;2.30;;;;;;;;;;5074450;28;20844;-77
2024/01/22 07:51:01;;;;;;;3.00;2.67;;;;;;;;;;5073404;28;20454;-77
2024/01/22 07:53:27;;;;;;;3.03;2.20;;;;;;;;;;5067979;28;20524;-76
2024/01/22 07:55:55;;;;;;;4.37;2.30;;;;;;;;;;5074109;28;20486;-76
2024/01/22 07:58:22;;;;;;;7.10;2.80;;;;;;;;;;5074220;28;20473;-77
2024/01/22 08:00:50;;;;;;;2.40;2.17;;;;;;;;;;5075502;28;20983;-76
2024/01/22 08:03:16;;;;;;;6.93;2.20;;;;;;;;;;5073178;28;20501;-77
2024/01/22 08:05:46;;;;;;;2.40;1.80;;;;;;;;;;5073906;28;20467;-76
2024/01/22 08:08:14;;;;;;;2.47;1.97;;;;;;;;;;5073682;28;20478;-77
2024/01/22 08:10:41;;;;;;;2.70;1.97;;;;;;;;;;5074253;28;20442;-78
2024/01/22 08:13:08;;;;;;;4.57;1.83;;;;;;;;;;5069589;28;20462;-78
2024/01/22 08:15:34;;;;;;;2.03;1.83;;;;;;;;;;5072550;28;20573;-78
2024/01/22 08:18:02;;;;;;;2.37;2.17;;;;;;;;;;5073980;28;20990;-78
2024/01/22 08:20:29;;;;;;;4.83;2.13;;;;;;;;;;5074320;28;20475;-77
2024/01/22 08:22:56;;;;;;;2.30;2.10;;;;;;;;;;5073277;28;20477;-77
2024/01/22 08:25:27;;;;;;;2.30;1.70;;;;;;;;;;5073269;28;20562;-79
2024/01/22 08:27:55;;;;;;;4.73;2.57;;;;;;;;;;5075790;28;20467;-78
2024/01/22 08:30:22;;;;;;;4.10;2.07;;;;;;;;;;5073725;28;20546;-77
2024/01/22 08:32:48;;;;;;;4.60;2.53;;;;;;;;;;5072890;28;20461;-79
2024/01/22 08:35:15;;;;;;;9.93;3.13;;;;;;;;;;5073133;28;20512;-80
2024/01/22 08:37:44;;;;;;;8.13;2.40;;;;;;;;;;5073861;28;20453;-77
2024/01/22 08:40:10;;;;;;;6.30;2.93;;;;;;;;;;5073450;28;20497;-77
2024/01/22 08:42:39;;;;;;;5.93;2.60;;;;;;;;;;5070481;28;20487;-79
2024/01/22 08:45:06;;;;;;;7.40;2.53;;;;;;;;;;5072567;28;20554;-79
2024/01/22 08:47:32;;;;;;;3.17;2.40;;;;;;;;;;5072780;28;20442;-76
2024/01/22 08:49:58;;;;;;;5.13;2.40;;;;;;;;;;5072627;28;20549;-79
2024/01/22 08:52:25;;;;;;;4.47;2.60;;;;;;;;;;5074547;28;20447;-76
2024/01/22 08:54:51;;;;;;;7.63;3.10;;;;;;;;;;5071264;28;21009;-76
2024/01/22 08:57:19;;;;;;;4.70;2.53;;;;;;;;;;5072058;28;20471;-78
2024/01/22 08:59:46;;;;;;;6.30;2.40;;;;;;;;;;5072654;28;20615;-78
2024/01/22 09:02:14;;;;;;;3.73;2.40;;;;;;;;;;5074000;28;20487;-79
2024/01/22 09:04:41;;;;;;;7.70;2.40;;;;;;;;;;5071346;28;20479;-79
2024/01/22 09:07:08;;;;;;;5.10;2.30;;;;;;;;;;5073980;28;21015;-78
2024/01/22 09:09:34;;;;;;;2.27;2.07;;;;;;;;;;5072244;28;20462;-78
2024/01/22 09:12:01;;;;;;;9.53;2.50;;;;;;;;;;5073985;28;20472;-78
2024/01/22 09:14:28;;;;;;;3.83;2.20;;;;;;;;;;5070542;28;20479;-79
2024/01/22 09:16:55;;;;;;;7.80;2.33;;;;;;;;;;5073406;28;20451;-78
2024/01/22 09:19:22;;;;;;;6.50;2.33;;;;;;;;;;5071938;28;20467;-78
2024/01/22 09:21:48;;;;;;;3.47;2.57;;;;;;;;;;5073531;28;21008;-79
2024/01/22 09:24:14;;;;;;;3.93;2.20;;;;;;;;;;5069479;28;20466;-80
2024/01/22 09:26:40;;;;;;;5.47;2.13;;;;;;;;;;5073561;28;20866;-78
2024/01/22 09:29:07;;;;;;;5.03;2.60;;;;;;;;;;5070977;28;20467;-79
2024/01/22 09:31:35;;;;;;;4.23;2.40;;;;;;;;;;5070820;28;20435;-79
2024/01/22 09:34:04;;;;;;;4.20;2.30;;;;;;;;;;5072094;28;20478;-79
2024/01/22 09:36:30;;;;;;;2.80;2.53;;;;;;;;;;5070612;28;20475;-79
2024/01/22 09:38:57;;;;;;;5.57;2.03;;;;;;;;;;5070347;28;20501;-77
2024/01/22 09:41:25;;;;;;;5.13;1.83;;;;;;;;;;5071633;28;20443;-79
2024/01/22 09:43:53;;;;;;;2.57;1.80;;;;;;;;;;5070200;28;20558;-79
2024/01/22 09:46:19;;;;;;;3.93;2.33;;;;;;;;;;5072174;28;20470;-79
2024/01/22 09:48:49;;;;;;;3.40;1.73;;;;;;;;;;5070781;28;20470;-78
2024/01/22 09:51:18;;;;;;;3.30;2.30;;;;;;;;;;5072353;28;20495;-79
2024/01/22 09:53:47;;;;;;;2.70;2.27;;;;;;;;;;5070602;28;20856;-76
2024/01/22 09:56:16;;;;;;;3.10;2.00;;;;;;;;;;5070798;28;20463;-80
2024/01/22 09:58:45;;;;;;;5.43;2.03;;;;;;;;;;5071739;28;20461;-79
2024/01/22 10:01:11;;;;;;;3.23;2.20;;;;;;;;;;5069304;28;20470;-79
2024/01/22 10:03:39;;;;;;;3.73;1.87;;;;;;;;;;5069626;28;21029;-78
2024/01/22 10:06:06;;;;;;;2.47;2.10;;;;;;;;;;5067535;28;20579;-79
2024/01/22 10:08:34;;;;;;;2.57;2.37;;;;;;;;;;5071208;28;21130;-78
2024/01/22 10:11:01;;;;;;;4.10;2.33;;;;;;;;;;5072129;28;20443;-78
2024/01/22 10:13:27;;;;;;;4.20;2.20;;;;;;;;;;5072785;28;20611;-79
2024/01/22 10:15:54;;;;;;;5.40;3.00;;;;;;;;;;5072995;28;20461;-79
2024/01/22 10:18:21;;;;;;;6.40;3.20;;;;;;;;;;5071840;28;20465;-78
2024/01/22 10:20:50;;;;;;;4.60;2.30;;;;;;;;;;5070446;28;20555;-78
2024/01/22 10:23:17;;;;;;;6.83;2.57;;;;;;;;;;5071731;28;20561;-76
2024/01/22 10:25:45;;;;;;;4.13;1.90;;;;;;;;;;5071204;28;20538;-79
2024/01/22 10:28:16;;;;;;;2.93;2.20;;;;;;;;;;5071259;28;20858;-77
2024/01/22 10:30:44;;;;;;;2.70;1.83;;;;;;;;;;5070171;28;20451;-79
2024/01/22 10:33:14;;;;;;;5.50;2.00;;;;;;;;;;5071440;28;20853;-79
2024/01/22 10:35:41;;;;;;;4.60;1.47;;;;;;;;;;5070202;28;20462;-77
2024/01/22 10:38:07;;;;;;;1.40;1.30;;;;;;;;;;5070558;28;20467;-79
2024/01/22 10:40:34;;;;;;;5.20;2.10;;;;;;;;;;5071598;28;20443;-78
2024/01/22 10:43:17;;;;;;;5.30;1.67;;;;;;;;;;5070587;28;20561;-78
2024/01/22 10:45:45;;;;;;;3.60;1.90;;;;;;;;;;5072749;28;20526;-79
2024/01/22 10:48:13;;;;;;;7.10;3.03;;;;;;;;;;5071393;28;20554;-77
2024/01/22 10:50:42;;;;;;;5.17;1.37;;;;;;;;;;5072124;28;20442;-76
2024/01/22 10:53:10;;;;;;;3.03;1.63;;;;;;;;;;5071556;28;20477;-77
2024/01/22 10:55:38;;;;;;;7.23;1.90;;;;;;;;;;5070292;28;20482;-76
2024/01/22 10:58:10;;;;;;;2.33;1.87;;;;;;;;;;5066447;28;20502;-76
2024/01/22 11:00:42;;;;;;;7.07;2.17;;;;;;;;;;5072185;28;20441;-77
2024/01/22 11:03:10;;;;;;;8.83;2.30;;;;;;;;;;5070089;28;20837;-76
2024/01/22 11:05:42;;;;;;;8.37;2.53;;;;;;;;;;5072481;28;20461;-79
2024/01/22 11:08:12;;;;;;;10.60;4.50;;;;;;;;;;5074055;28;20466;-77
2024/01/22 11:10:39;;;;;;;15.03;3.70;;;;;;;;;;5072575;28;20458;-77
2024/01/22 11:13:09;;;;;;;11.83;4.10;;;;;;;;;;5074407;28;20904;-77
2024/01/22 11:15:36;;;;;;;19.13;4.80;;;;;;;;;;5075288;28;20542;-76
2024/01/22 11:18:03;;;;;;;13.80;4.03;;;;;;;;;;5075126;28;20543;-77
2024/01/22 11:20:29;;;;;;;16.17;3.70;;;;;;;;;;5075505;28;20453;-76
2024/01/22 11:23:00;;;;;;;14.57;4.60;;;;;;;;;;5074642;28;20463;-77
2024/01/22 11:25:26;;;;;;;21.17;5.23;;;;;;;;;;5073708;28;20462;-77
2024/01/22 11:28:00;;;;;;;20.67;5.03;;;;;;;;;;5072956;28;20833;-76
2024/01/22 11:30:32;;;;;;;21.77;4.40;;;;;;;;;;5077193;28;20521;-77
2024/01/22 11:33:00;;;;;;;11.23;4.00;;;;;;;;;;5076137;28;20981;-76
2024/01/22 11:35:32;;;;;;;20.50;5.33;;;;;;;;;;5074988;28;20490;-76
2024/01/22 11:37:59;;;;;;;22.87;5.63;;;;;;;;;;5075868;28;20976;-76
2024/01/22 11:40:46;;;;;;;27.37;7.47;;;;;;;;;;5074177;28;20546;-77
2024/01/22 11:43:14;;;;;;;18.03;6.53;;;;;;;;;;5073899;28;20479;-76
2024/01/22 11:45:42;;;;;;;20.83;5.93;;;;;;;;;;5074642;28;20489;-77
2024/01/22 11:48:15;;;;;;;21.93;5.97;;;;;;;;;;5075617;28;20879;-78
2024/01/22 11:50:41;;;;;;;29.23;5.93;;;;;;;;;;5075170;28;20441;-77
2024/01/22 11:53:08;;;;;;;27.00;5.80;;;;;;;;;;5078067;28;20520;-77
2024/01/22 11:55:34;;;;;;;26.67;6.60;;;;;;;;;;5080076;28;20587;-76
2024/01/22 11:58:01;;;;;;;28.97;7.60;;;;;;;;;;5079855;28;20916;-76
2024/01/22 12:00:27;;;;;;;29.23;6.83;;;;;;;;;;5080071;28;20916;-76
2024/01/22 12:02:59;;;;;;;16.90;5.10;;;;;;;;;;5072584;28;20458;-76
2024/01/22 12:05:25;;;;;;;25.07;6.00;;;;;;;;;;5082887;28;20462;-76
2024/01/22 12:07:53;;;;;;;16.10;5.17;;;;;;;;;;5081815;28;21035;-76
2024/01/22 12:10:21;;;;;;;16.90;4.73;;;;;;;;;;5081907;28;20431;-76
2024/01/22 12:12:52;;;;;;;22.47;5.17;;;;;;;;;;5082287;28;20435;-76
2024/01/22 12:15:19;;;;;;;20.70;5.10;;;;;;;;;;5084405;28;20856;-77
2024/01/22 12:17:45;;;;;;;21.90;6.93;;;;;;;;;;5084224;28;20491;-78
2024/01/22 12:20:13;;;;;;;24.93;5.40;;;;;;;;;;5085308;28;20460;-77
2024/01/22 12:22:41;;;;;;;29.67;5.77;;;;;;;;;;5084465;28;20498;-76
2024/01/22 12:25:09;;;;;;;25.03;5.20;;;;;;;;;;5083881;28;20502;-77
2024/01/22 12:27:37;;;;;;;18.43;5.50;;;;;;;;;;5085927;28;20511;-77
2024/01/22 12:30:08;;;;;;;26.23;7.17;;;;;;;;;;5085343;28;20481;-76
2024/01/22 12:32:35;;;;;;;20.10;4.90;;;;;;;;;;5081801;28;20455;-77
2024/01/22 12:35:02;;;;;;;17.53;5.67;;;;;;;;;;5086246;28;20470;-76
2024/01/22 12:37:30;;;;;;;20.53;5.43;;;;;;;;;;5084094;28;20469;-76
2024/01/22 12:40:06;;;;;;;26.20;5.00;;;;;;;;;;5082462;28;20534;-76
2024/01/22 12:42:36;;;;;;;18.63;4.87;;;;;;;;;;5082077;28;20597;-78
2024/01/22 12:45:04;;;;;;;25.03;4.90;;;;;;;;;;5081415;28;20455;-78
2024/01/22 12:47:33;;;;;;;20.27;5.33;;;;;;;;;;5086580;28;20463;-77
2024/01/22 12:49:59;;;;;;;29.30;5.00;;;;;;;;;;5085198;28;20447;-77
2024/01/22 12:52:26;;;;;;;18.83;4.80;;;;;;;;;;5085710;28;20515;-79
2024/01/22 12:54:54;;;;;;;15.93;4.50;;;;;;;;;;5084416;28;20533;-79
2024/01/22 12:57:20;;;;;;;17.67;5.73;;;;;;;;;;5083678;28;20491;-77
2024/01/22 12:59:48;;;;;;;22.70;5.10;;;;;;;;;;5083635;28;20543;-76
2024/01/22 13:02:14;;;;;;;17.10;5.23;;;;;;;;;;5084734;28;20471;-77
2024/01/22 13:04:41;;;;;;;21.40;5.20;;;;;;;;;;5082868;28;20476;-76
2024/01/22 13:07:08;;;;;;;24.13;5.70;;;;;;;;;;5084078;28;20511;-76
2024/01/22 13:09:35;;;;;;;18.40;5.27;;;;;;;;;;5081330;28;21104;-78
2024/01/22 13:12:06;;;;;;;22.27;6.37;;;;;;;;;;5082025;28;20542;-78
2024/01/22 13:14:39;;;;;;;17.83;4.83;;;;;;;;;;5082158;28;20489;-78
2024/01/22 13:17:08;;;;;;;28.50;7.87;;;;;;;;;;5083297;28;20522;-76
2024/01/22 13:19:34;;;;;;;25.33;5.57;;;;;;;;;;5082400;28;20466;-78
2024/01/22 13:22:01;;;;;;;21.83;5.40;;;;;;;;;;5083624;28;20466;-77
2024/01/22 13:24:29;;;;;;;27.90;7.00;;;;;;;;;;5082186;28;20892;-76
2024/01/22 13:26:56;;;;;;;19.13;5.53;;;;;;;;;;5080506;28;20459;-77
2024/01/22 13:29:26;;;;;;;15.67;6.50;;;;;;;;;;5082677;28;20547;-78
2024/01/22 13:31:52;;;;;;;18.43;4.90;;;;;;;;;;5083445;28;20518;-77
2024/01/22 13:34:19;;;;;;;22.60;5.93;;;;;;;;;;5084658;28;20463;-76
2024/01/22 13:36:46;;;;;;;19.43;5.63;;;;;;;;;;5084124;28;20485;-76
2024/01/22 13:39:14;;;;;;;21.20;6.77;;;;;;;;;;5083993;28;20470;-78
2024/01/22 13:41:42;;;;;;;26.43;5.23;;;;;;;;;;5083323;28;20497;-78
2024/01/22 13:44:12;;;;;;;24.80;4.50;;;;;;;;;;5079092;28;20538;-76
2024/01/22 13:46:43;;;;;;;19.60;4.93;;;;;;;;;;5082274;28;20551;-76
2024/01/22 13:49:11;;;;;;;20.93;5.20;;;;;;;;;;5085947;28;20475;-75
2024/01/22 13:51:38;;;;;;;29.13;5.70;;;;;;;;;;5082468;28;20443;-79
2024/01/22 13:54:07;;;;;;;22.53;5.50;;;;;;;;;;5082549;28;20558;-78
2024/01/22 13:56:35;;;;;;;26.30;4.60;;;;;;;;;;5081094;28;20474;-78
2024/01/22 13:59:02;;;;;;;15.57;5.10;;;;;;;;;;5072546;28;20482;-77
2024/01/22 14:01:29;;;;;;;27.00;5.20;;;;;;;;;;5082794;28;20451;-77
2024/01/22 14:03:58;;;;;;;19.30;5.40;;;;;;;;;;5081892;28;20557;-77
2024/01/22 14:06:24;;;;;;;31.13;8.60;;;;;;;;;;5078583;28;21073;-79
2024/01/22 14:08:51;;;;;;;14.30;4.57;;;;;;;;;;5081762;28;20491;-77
2024/01/22 14:11:20;;;;;;;22.00;6.13;;;;;;;;;;5079868;28;20471;-78
2024/01/22 14:13:46;;;;;;;18.30;5.03;;;;;;;;;;5080848;28;20479;-77
2024/01/22 14:16:16;;;;;;;16.40;5.53;;;;;;;;;;5080427;28;21175;-79
2024/01/22 14:18:44;;;;;;;18.70;6.97;;;;;;;;;;5081785;28;20567;-76
2024/01/22 14:21:13;;;;;;;14.90;4.77;;;;;;;;;;5076407;28;20454;-76
2024/01/22 14:23:40;;;;;;;17.03;5.07;;;;;;;;;;5080444;28;20470;-76
2024/01/22 14:26:07;;;;;;;19.93;5.30;;;;;;;;;;5080974;28;20518;-77
2024/01/22 14:28:33;;;;;;;17.53;5.77;;;;;;;;;;5077197;28;20463;-76
2024/01/22 14:31:01;;;;;;;25.37;6.20;;;;;;;;;;5081126;28;20482;-76
2024/01/22 14:33:27;;;;;;;24.13;5.70;;;;;;;;;;5079328;28;20463;-76
2024/01/22 14:35:57;;;;;;;21.63;5.37;;;;;;;;;;5080071;28;20530;-77
2024/01/22 14:38:25;;;;;;;18.77;4.90;;;;;;;;;;5079101;28;20478;-76
2024/01/22 14:40:52;;;;;;;24.93;5.77;;;;;;;;;;5079349;28;20443;-76